createdAt,value
2022-08-23T00:01:24.320Z,2.90
2022-08-23T00:03:54.028Z,4.03
2022-08-23T00:06:24.035Z,3.33
2022-08-23T00:08:53.796Z,2.87
2022-08-23T00:11:28.533Z,2.90
2022-08-23T00:13:58.314Z,4.03
2022-08-23T00:16:27.068Z,3.30
2022-08-23T00:18:55.649Z,3.33
2022-08-23T00:21:25.541Z,2.90
2022-08-23T00:23:53.935Z,3.13
2022-08-23T00:26:23.123Z,3.40
2022-08-23T00:28:51.941Z,3.40
2022-08-23T00:31:20.940Z,3.57
2022-08-23T00:33:49.413Z,4.07
2022-08-23T00:36:18.106Z,3.33
2022-08-23T00:38:47.923Z,3.20
2022-08-23T00:41:16.451Z,3.47
2022-08-23T00:44:02.599Z,3.27
2022-08-23T00:46:59.565Z,3.40
2022-08-23T00:49:28.314Z,3.80
2022-08-23T00:51:59.098Z,3.73
2022-08-23T00:54:30.467Z,3.13
2022-08-23T00:57:01.788Z,3.67
2022-08-23T00:59:30.363Z,3.30
2022-08-23T01:01:59.644Z,3.10
2022-08-23T01:04:28.733Z,3.20
2022-08-23T01:07:00.290Z,3.20
2022-08-23T01:09:30.434Z,2.83
2022-08-23T01:12:02.818Z,3.40
2022-08-23T01:14:34.213Z,2.93
2022-08-23T01:17:05.606Z,3.27
2022-08-23T01:19:37.071Z,3.10
2022-08-23T01:22:11.223Z,3.03
2022-08-23T01:24:59.927Z,3.17
2022-08-23T01:27:31.572Z,3.43
2022-08-23T01:30:01.703Z,4.00
2022-08-23T01:32:32.990Z,3.10
2022-08-23T01:35:01.689Z,3.23
2022-08-23T01:37:30.342Z,3.17
2022-08-23T01:40:00.637Z,2.90
2022-08-23T01:42:29.253Z,2.77
2022-08-23T01:44:58.551Z,3.30
2022-08-23T01:47:27.106Z,3.00
2022-08-23T01:49:55.689Z,3.13
2022-08-23T01:52:24.219Z,3.93
2022-08-23T01:54:52.697Z,3.10
2022-08-23T01:57:22.862Z,3.40
2022-08-23T01:59:51.402Z,3.13
2022-08-23T02:02:19.909Z,3.60
2022-08-23T02:04:48.612Z,3.37
2022-08-23T02:07:17.109Z,2.87
2022-08-23T02:09:45.947Z,3.43
2022-08-23T02:12:14.602Z,3.50
2022-08-23T02:14:44.366Z,3.57
2022-08-23T02:17:22.163Z,3.43
2022-08-23T02:19:51.032Z,3.53
2022-08-23T02:22:19.939Z,3.53
2022-08-23T02:24:49.202Z,3.40
2022-08-23T02:27:18.222Z,3.07
2022-08-23T02:29:50.289Z,3.63
2022-08-23T02:32:21.210Z,3.17
2022-08-23T02:37:36.855Z,3.70
2022-08-23T02:40:06.926Z,3.50
2022-08-23T02:42:36.435Z,4.00
2022-08-23T02:45:08.585Z,3.80
2022-08-23T02:47:41.563Z,3.17
2022-08-23T02:50:16.804Z,3.33
2022-08-23T02:52:46.207Z,2.50
2022-08-23T02:55:15.513Z,2.90
2022-08-23T02:57:44.205Z,3.20
2022-08-23T03:00:17.391Z,3.93
2022-08-23T03:02:47.743Z,3.83
2022-08-23T03:05:17.056Z,4.00
2022-08-23T03:07:46.189Z,3.00
2022-08-23T03:10:16.709Z,4.57
2022-08-23T03:12:51.130Z,4.50
2022-08-23T03:15:21.235Z,3.60
2022-08-23T03:17:50.028Z,2.60
2022-08-23T03:20:19.174Z,3.10
2022-08-23T03:22:54.362Z,3.43
2022-08-23T03:25:25.648Z,3.87
2022-08-23T03:28:05.609Z,2.87
2022-08-23T03:30:37.835Z,3.17
2022-08-23T03:33:07.847Z,3.37
2022-08-23T03:35:36.472Z,3.40
2022-08-23T03:38:05.732Z,3.60
2022-08-23T03:40:34.771Z,3.70
2022-08-23T03:43:03.451Z,3.80
2022-08-23T03:45:32.626Z,3.40
2022-08-23T03:48:02.500Z,3.83
2022-08-23T03:50:33.831Z,3.87
2022-08-23T03:53:02.240Z,4.30
2022-08-23T03:55:30.837Z,4.43
2022-08-23T03:58:01.767Z,3.03
2022-08-23T04:00:30.418Z,2.70
2022-08-23T04:02:58.866Z,3.07
2022-08-23T04:05:30.213Z,3.17
2022-08-23T04:08:09.288Z,4.20
2022-08-23T04:10:39.407Z,4.23
2022-08-23T04:13:09.043Z,4.63
2022-08-23T04:15:38.380Z,4.87
2022-08-23T04:18:07.800Z,4.83
2022-08-23T04:20:39.624Z,4.47
2022-08-23T04:23:08.113Z,4.27
2022-08-23T04:25:51.838Z,4.03
2022-08-23T04:28:21.101Z,4.00
2022-08-23T04:30:50.504Z,4.00
2022-08-23T04:33:19.430Z,3.83
2022-08-23T04:35:51.283Z,3.60
2022-08-23T04:38:24.928Z,3.50
2022-08-23T04:41:15.153Z,3.53
2022-08-23T04:43:45.953Z,3.27
2022-08-23T04:46:16.432Z,3.50
2022-08-23T04:48:48.535Z,3.40
2022-08-23T04:51:19.957Z,3.27
2022-08-23T04:53:48.439Z,3.50
2022-08-23T04:56:43.337Z,3.80
2022-08-23T04:59:13.265Z,3.30
2022-08-23T05:01:44.337Z,3.50
2022-08-23T05:04:15.574Z,3.00
2022-08-23T05:06:46.276Z,3.50
2022-08-23T05:09:19.856Z,3.43
2022-08-23T05:11:49.402Z,3.47
2022-08-23T05:14:18.815Z,3.93
2022-08-23T05:16:47.754Z,3.37
2022-08-23T05:19:16.338Z,3.40
2022-08-23T05:21:48.358Z,3.60
2022-08-23T05:24:17.085Z,3.80
2022-08-23T05:26:48.053Z,3.33
2022-08-23T05:29:16.968Z,3.77
2022-08-23T05:31:49.764Z,3.53
2022-08-23T05:34:22.385Z,3.77
2022-08-23T05:36:56.424Z,4.10
2022-08-23T05:39:38.184Z,3.50
2022-08-23T05:42:09.805Z,3.10
2022-08-23T05:44:38.507Z,4.17
2022-08-23T05:47:12.100Z,3.77
2022-08-23T05:49:54.629Z,3.80
2022-08-23T05:52:26.227Z,4.90
2022-08-23T05:54:54.717Z,3.33
2022-08-23T05:57:41.665Z,3.33
2022-08-23T06:00:13.619Z,3.60
2022-08-23T06:02:49.150Z,3.60
2022-08-23T06:05:19.563Z,3.87
2022-08-23T06:07:50.665Z,4.10
2022-08-23T06:10:21.543Z,4.87
2022-08-23T06:13:03.432Z,4.00
2022-08-23T06:15:32.479Z,4.10
2022-08-23T06:18:01.179Z,4.17
2022-08-23T06:20:30.352Z,3.60
2022-08-23T06:23:02.774Z,4.07
2022-08-23T06:25:32.187Z,4.20
2022-08-23T06:28:09.564Z,4.40
2022-08-23T06:30:39.976Z,4.90
2022-08-23T06:33:26.837Z,4.27
2022-08-23T06:36:15.061Z,4.67
2022-08-23T06:39:12.084Z,4.40
2022-08-23T06:42:02.097Z,4.20
2022-08-23T06:44:32.533Z,4.63
2022-08-23T06:47:12.626Z,4.50
2022-08-23T06:49:41.186Z,4.20
2022-08-23T06:52:49.341Z,5.00
2022-08-23T06:55:40.051Z,3.73
2022-08-23T06:58:29.216Z,3.77
2022-08-23T07:00:57.909Z,4.20
2022-08-23T07:03:49.394Z,4.97
2022-08-23T07:06:36.932Z,4.10
2022-08-23T07:09:07.571Z,4.77
2022-08-23T07:11:37.488Z,4.67
2022-08-23T07:14:08.318Z,4.20
2022-08-23T07:16:38.954Z,4.10
2022-08-23T07:19:09.187Z,4.03
2022-08-23T07:21:38.037Z,4.77
2022-08-23T07:24:08.579Z,4.10
2022-08-23T07:26:39.811Z,4.90
2022-08-23T07:29:10.803Z,5.40
2022-08-23T07:31:42.332Z,4.57
2022-08-23T07:34:11.233Z,4.20
2022-08-23T07:36:43.924Z,4.53
2022-08-23T07:39:14.321Z,4.27
2022-08-23T07:41:45.393Z,5.27
2022-08-23T07:44:16.814Z,3.33
2022-08-23T07:46:49.054Z,4.20
2022-08-23T07:49:18.170Z,4.53
2022-08-23T07:51:50.636Z,4.30
2022-08-23T07:54:21.312Z,4.57
2022-08-23T07:57:13.870Z,3.93
2022-08-23T07:59:56.751Z,4.27
2022-08-23T08:02:44.106Z,4.27
2022-08-23T08:05:21.887Z,3.90
2022-08-23T08:07:51.582Z,3.30
2022-08-23T08:10:20.859Z,4.50
2022-08-23T08:12:51.788Z,3.90
2022-08-23T08:15:21.917Z,4.30
2022-08-23T08:17:58.409Z,4.00
2022-08-23T08:20:49.694Z,3.87
2022-08-23T08:23:47.252Z,3.43
2022-08-23T08:26:32.100Z,3.87
2022-08-23T08:29:02.416Z,3.83
2022-08-23T08:31:31.081Z,3.30
2022-08-23T08:33:59.654Z,3.33
2022-08-23T08:36:35.271Z,3.50
2022-08-23T08:39:08.406Z,3.37
2022-08-23T08:42:00.405Z,3.30
2022-08-23T08:44:39.319Z,3.70
2022-08-23T08:47:12.025Z,3.60
2022-08-23T08:49:45.498Z,3.90
2022-08-23T08:52:18.758Z,3.67
2022-08-23T08:54:48.899Z,4.23
2022-08-23T08:57:25.399Z,3.80
2022-08-23T09:00:01.776Z,4.10
2022-08-23T09:02:34.778Z,4.00
2022-08-23T09:05:12.836Z,4.00
2022-08-23T09:07:50.101Z,3.73
2022-08-23T09:10:39.324Z,3.70
2022-08-23T09:13:25.406Z,3.50
2022-08-23T09:16:00.218Z,4.13
2022-08-23T09:18:33.433Z,3.57
2022-08-23T09:21:02.815Z,4.47
2022-08-23T09:23:36.546Z,3.40
2022-08-23T09:26:17.925Z,3.43
2022-08-23T09:28:48.022Z,3.80
2022-08-23T09:31:37.489Z,3.53
2022-08-23T09:34:06.582Z,3.57
2022-08-23T09:37:03.145Z,3.13
2022-08-23T09:39:33.162Z,3.50
2022-08-23T09:42:09.822Z,3.87
2022-08-23T09:44:40.625Z,3.00
2022-08-23T09:47:17.007Z,3.13
2022-08-23T09:49:52.442Z,3.37
2022-08-23T09:52:26.130Z,2.90
2022-08-23T09:55:03.010Z,2.50
2022-08-23T09:57:34.840Z,2.80
2022-08-23T10:00:22.065Z,3.17
2022-08-23T10:02:57.741Z,3.07
2022-08-23T10:05:32.471Z,2.43
2022-08-23T10:08:02.706Z,2.73
2022-08-23T10:10:36.961Z,2.90
2022-08-23T10:13:08.305Z,2.70
2022-08-23T10:15:49.503Z,2.73
2022-08-23T10:18:29.919Z,3.20
2022-08-23T10:21:02.915Z,2.57
2022-08-23T10:23:40.793Z,2.70
2022-08-23T10:26:12.642Z,2.60
2022-08-23T10:29:06.467Z,2.40
2022-08-23T10:31:38.962Z,2.50
2022-08-23T10:34:21.944Z,2.50
2022-08-23T10:36:59.651Z,2.20
2022-08-23T10:39:30.218Z,2.67
2022-08-23T10:42:05.120Z,2.40
2022-08-23T10:44:36.844Z,2.10
2022-08-23T10:47:15.447Z,1.97
2022-08-23T10:49:50.297Z,2.20
2022-08-23T10:52:22.286Z,2.30
2022-08-23T10:55:00.740Z,2.10
2022-08-23T10:57:34.290Z,2.33
2022-08-23T11:00:06.910Z,1.83
2022-08-23T11:02:42.801Z,1.83
2022-08-23T11:05:28.075Z,1.83
2022-08-23T11:08:03.219Z,1.87
2022-08-23T11:10:42.034Z,1.67
2022-08-23T11:13:29.455Z,1.50
2022-08-23T11:16:00.956Z,1.63
2022-08-23T11:18:40.910Z,1.90
2022-08-23T11:21:31.598Z,1.47
2022-08-23T11:24:36.519Z,1.73
2022-08-23T11:27:07.833Z,1.63
2022-08-23T11:29:44.669Z,1.60
2022-08-23T11:32:39.464Z,1.67
2022-08-23T11:35:36.877Z,1.83
2022-08-23T11:38:11.715Z,1.53
2022-08-23T11:41:13.768Z,1.53
2022-08-23T11:43:45.382Z,1.40
2022-08-23T11:46:35.508Z,1.67
2022-08-23T11:49:27.711Z,1.53
2022-08-23T11:52:04.349Z,1.70
2022-08-23T11:54:49.473Z,1.43
2022-08-23T11:57:31.245Z,1.63
2022-08-23T12:00:17.754Z,2.07
2022-08-23T12:03:02.841Z,1.60
2022-08-23T12:05:45.129Z,2.17
2022-08-23T12:08:46.797Z,1.83
2022-08-23T12:11:18.534Z,1.73
2022-08-23T12:13:59.204Z,1.60
2022-08-23T12:16:44.089Z,1.87
2022-08-23T12:19:30.410Z,1.60
2022-08-23T12:21:59.556Z,1.70
2022-08-23T12:24:32.476Z,1.50
2022-08-23T12:27:29.878Z,1.33
2022-08-23T12:30:03.329Z,1.60
2022-08-23T12:32:37.651Z,1.63
2022-08-23T12:35:31.500Z,1.80
2022-08-23T12:38:04.289Z,1.73
2022-08-23T12:40:35.453Z,1.53
2022-08-23T12:43:09.769Z,1.90
2022-08-23T12:45:45.300Z,1.60
2022-08-23T12:48:16.081Z,1.57
2022-08-23T12:50:52.568Z,1.70
2022-08-23T12:53:28.666Z,1.67
2022-08-23T12:56:02.093Z,1.40
2022-08-23T12:58:34.277Z,1.77
2022-08-23T13:01:06.084Z,1.50
2022-08-23T13:03:36.956Z,1.37
2022-08-23T13:06:07.800Z,1.60
2022-08-23T13:08:42.202Z,1.80
2022-08-23T13:11:11.489Z,1.25
2022-08-23T13:13:43.981Z,1.77
2022-08-23T13:16:28.460Z,1.50
2022-08-23T13:19:14.990Z,1.40
2022-08-23T13:21:44.410Z,1.40
2022-08-23T13:24:38.638Z,1.70
2022-08-23T13:27:19.777Z,1.60
2022-08-23T13:30:00.269Z,1.60
2022-08-23T13:32:32.713Z,1.47
2022-08-23T13:35:34.880Z,1.50
2022-08-23T13:38:14.717Z,1.60
2022-08-23T13:40:50.421Z,1.60
2022-08-23T13:43:22.614Z,1.63
2022-08-23T13:45:54.604Z,1.60
2022-08-23T13:48:26.048Z,1.80
2022-08-23T13:50:54.813Z,1.42
2022-08-23T13:53:23.396Z,1.48
2022-08-23T13:55:54.919Z,1.13
2022-08-23T13:58:29.705Z,1.50
2022-08-23T14:01:01.271Z,1.50
2022-08-23T14:03:32.076Z,1.33
2022-08-23T14:06:00.584Z,1.38
2022-08-23T14:08:29.005Z,1.50
2022-08-23T14:10:57.451Z,1.27
2022-08-23T14:13:29.648Z,1.25
2022-08-23T14:21:41.084Z,1.70
2022-08-23T14:24:10.439Z,1.33
2022-08-23T14:26:39.124Z,1.25
2022-08-23T14:29:22.348Z,1.20
2022-08-23T14:31:53.223Z,1.10
2022-08-23T14:34:22.064Z,1.08
2022-08-23T14:39:39.921Z,0.88
2022-08-23T14:42:08.537Z,1.08
2022-08-23T14:44:36.936Z,1.02
2022-08-23T14:47:07.339Z,1.00
2022-08-23T14:49:36.206Z,1.10
2022-08-23T14:52:05.103Z,0.95
2022-08-23T14:54:33.799Z,1.00
2022-08-23T14:57:02.402Z,1.48
2022-08-23T14:59:30.818Z,1.00
2022-08-23T15:01:59.611Z,1.08
2022-08-23T15:04:34.330Z,1.20
2022-08-23T15:07:17.851Z,1.05
2022-08-23T15:09:47.180Z,0.93
2022-08-23T15:15:05.849Z,1.20
2022-08-23T15:17:37.930Z,0.80
2022-08-23T15:20:08.562Z,1.27
2022-08-23T15:22:44.343Z,1.17
2022-08-23T15:25:13.990Z,1.27
2022-08-23T15:27:43.085Z,0.88
2022-08-23T15:30:13.198Z,1.10
2022-08-23T15:32:44.404Z,0.95
2022-08-23T15:35:23.205Z,1.00
2022-08-23T15:37:52.492Z,0.88
2022-08-23T15:40:21.303Z,0.93
2022-08-23T15:42:49.851Z,0.70
2022-08-23T15:45:18.504Z,1.10
2022-08-23T15:47:49.693Z,0.80
2022-08-23T15:50:19.349Z,0.70
2022-08-23T15:52:49.185Z,0.90
2022-08-23T15:55:18.235Z,1.00
2022-08-23T15:57:48.788Z,0.90
2022-08-23T16:00:19.387Z,0.82
2022-08-23T16:03:19.067Z,1.20
2022-08-23T16:05:37.538Z,1.23
2022-08-23T16:08:08.409Z,0.90
2022-08-23T16:10:36.821Z,0.90
2022-08-23T16:13:05.304Z,1.33
2022-08-23T16:15:33.838Z,1.63
2022-08-23T16:18:02.234Z,1.50
2022-08-23T16:20:30.646Z,1.55
2022-08-23T16:22:59.251Z,1.00
2022-08-23T16:25:29.523Z,0.82
2022-08-23T16:27:57.975Z,0.90
2022-08-23T16:30:26.513Z,1.00
2022-08-23T16:32:54.951Z,0.95
2022-08-23T16:35:23.510Z,0.88
2022-08-23T16:37:52.309Z,0.90
2022-08-23T16:40:24.016Z,0.60
2022-08-23T16:42:53.802Z,0.95
2022-08-23T16:45:26.042Z,1.10
2022-08-23T16:47:55.046Z,0.98
2022-08-23T16:50:23.681Z,1.00
2022-08-23T16:52:52.075Z,1.10
2022-08-23T16:55:20.696Z,0.80
2022-08-23T16:57:49.066Z,0.88
2022-08-23T17:00:18.984Z,0.70
2022-08-23T17:02:47.561Z,1.00
2022-08-23T17:05:18.359Z,1.00
2022-08-23T17:07:47.748Z,1.00
2022-08-23T17:10:18.401Z,0.98
2022-08-23T17:12:49.651Z,0.88
2022-08-23T17:15:22.648Z,1.10
2022-08-23T17:17:51.683Z,1.00
2022-08-23T17:20:22.013Z,0.80
2022-08-23T17:22:50.537Z,0.95
2022-08-23T17:25:20.603Z,1.15
2022-08-23T17:27:51.034Z,0.90
2022-08-23T17:30:24.246Z,1.05
2022-08-23T17:32:53.305Z,1.08
2022-08-23T17:35:24.819Z,1.20
2022-08-23T17:37:53.630Z,1.00
2022-08-23T17:40:25.504Z,1.10
2022-08-23T17:42:54.156Z,1.08
2022-08-23T17:45:24.147Z,1.15
2022-08-23T17:47:52.606Z,0.90
2022-08-23T17:50:21.904Z,1.27
2022-08-23T17:52:51.144Z,0.90
2022-08-23T17:55:20.587Z,1.33
2022-08-23T17:57:50.226Z,1.15
2022-08-23T18:00:20.094Z,1.10
2022-08-23T18:02:50.355Z,1.15
2022-08-23T18:05:21.335Z,1.20
2022-08-23T18:07:49.833Z,1.05
2022-08-23T18:10:19.358Z,1.23
2022-08-23T18:12:48.719Z,1.17
2022-08-23T18:15:19.983Z,1.30
2022-08-23T18:17:49.828Z,1.00
2022-08-23T18:20:21.318Z,1.30
2022-08-23T18:22:49.820Z,1.20
2022-08-23T18:25:18.201Z,1.45
2022-08-23T18:28:04.599Z,1.10
2022-08-23T18:30:33.254Z,1.40
2022-08-23T18:33:03.443Z,1.38
2022-08-23T18:35:33.341Z,1.40
2022-08-23T18:38:02.998Z,1.20
2022-08-23T18:40:31.540Z,1.30
2022-08-23T18:43:00.025Z,1.40
2022-08-23T18:45:31.699Z,1.30
2022-08-23T18:48:00.222Z,1.30
2022-08-23T18:50:30.016Z,1.45
2022-08-23T18:52:58.622Z,1.35
2022-08-23T18:55:27.068Z,1.63
2022-08-23T18:57:55.630Z,1.15
2022-08-23T19:00:24.150Z,1.40
2022-08-23T19:02:53.724Z,1.38
2022-08-23T19:05:22.331Z,1.33
2022-08-23T19:07:52.150Z,1.42
2022-08-23T19:10:21.828Z,1.17
2022-08-23T19:12:52.808Z,1.20
2022-08-23T19:15:24.475Z,1.38
2022-08-23T19:17:53.621Z,1.30
2022-08-23T19:20:23.101Z,1.30
2022-08-23T19:22:53.821Z,1.37
2022-08-23T19:25:22.514Z,1.65
2022-08-23T19:27:51.048Z,1.60
2022-08-23T19:30:19.841Z,1.33
2022-08-23T19:32:48.605Z,1.65
2022-08-23T19:35:17.821Z,1.38
2022-08-23T19:37:46.349Z,1.50
2022-08-23T19:40:16.202Z,1.52
2022-08-23T19:42:44.688Z,1.50
2022-08-23T19:45:14.044Z,1.30
2022-08-23T19:47:42.562Z,1.42
2022-08-23T19:50:11.874Z,1.30
2022-08-23T19:52:40.375Z,1.30
2022-08-23T19:55:10.578Z,1.38
2022-08-23T19:57:40.427Z,1.40
2022-08-23T20:00:19.348Z,1.45
2022-08-23T20:02:48.528Z,1.38
2022-08-23T20:05:17.109Z,1.50
2022-08-23T20:07:46.343Z,1.42
2022-08-23T20:10:15.143Z,1.42
2022-08-23T20:12:44.920Z,1.55
2022-08-23T20:15:14.558Z,1.50
2022-08-23T20:17:42.989Z,1.48
2022-08-23T20:20:13.737Z,1.87
2022-08-23T20:22:59.838Z,1.80
2022-08-23T20:25:29.108Z,1.67
2022-08-23T20:27:59.463Z,1.57
2022-08-23T20:30:28.251Z,1.80
2022-08-23T20:32:56.766Z,1.73
2022-08-23T20:35:25.419Z,1.55
2022-08-23T20:37:53.912Z,1.80
2022-08-23T20:40:25.754Z,1.85
2022-08-23T20:42:54.285Z,2.00
2022-08-23T20:45:24.102Z,2.17
2022-08-23T20:47:52.540Z,2.17
2022-08-23T20:50:21.029Z,2.10
2022-08-23T20:52:49.505Z,1.90
2022-08-23T20:55:18.044Z,2.03
2022-08-23T20:57:46.847Z,2.15
2022-08-23T21:00:18.120Z,2.33
2022-08-23T21:02:47.862Z,2.20
2022-08-23T21:05:16.360Z,2.35
2022-08-23T21:07:44.835Z,1.95
2022-08-23T21:10:13.420Z,1.80
2022-08-23T21:12:41.843Z,2.63
2022-08-23T21:15:11.611Z,2.80
2022-08-23T21:17:40.097Z,2.83
2022-08-23T21:20:10.619Z,3.50
2022-08-23T21:22:39.041Z,3.10
2022-08-23T21:25:08.097Z,3.30
2022-08-23T21:27:36.786Z,3.13
2022-08-23T21:30:06.345Z,2.90
2022-08-23T21:32:34.832Z,3.17
2022-08-23T21:35:03.558Z,3.03
2022-08-23T21:37:35.561Z,3.10
2022-08-23T21:40:05.180Z,3.03
2022-08-23T21:42:33.845Z,5.73
2022-08-23T21:45:02.879Z,9.87
2022-08-23T21:47:31.529Z,9.23
2022-08-23T21:50:00.057Z,9.73
2022-08-23T21:52:28.577Z,5.70
2022-08-23T21:54:58.372Z,4.93
2022-08-23T21:57:26.845Z,3.70
2022-08-23T21:59:55.302Z,5.10
2022-08-23T22:02:23.846Z,4.57
2022-08-23T22:04:52.284Z,4.60
2022-08-23T22:07:20.943Z,4.30
2022-08-23T22:09:51.427Z,3.67
2022-08-23T22:12:24.902Z,3.70
2022-08-23T22:14:53.638Z,3.23
2022-08-23T22:17:22.094Z,3.10
2022-08-23T22:19:51.595Z,3.37
2022-08-23T22:22:20.133Z,3.00
2022-08-23T22:24:48.861Z,3.20
2022-08-23T22:27:17.293Z,3.50
2022-08-23T22:29:47.137Z,2.90
2022-08-23T22:32:15.848Z,3.27
2022-08-23T22:34:44.349Z,3.40
2022-08-23T22:37:12.852Z,3.17
2022-08-23T22:39:41.565Z,3.07
2022-08-23T22:42:10.185Z,3.27
2022-08-23T22:44:39.288Z,3.00
2022-08-23T22:47:09.075Z,2.70
2022-08-23T22:49:37.556Z,3.10
2022-08-23T22:52:06.060Z,3.10
2022-08-23T22:54:34.562Z,3.00
2022-08-23T22:57:03.064Z,3.00
2022-08-23T22:59:33.010Z,2.77
2022-08-23T23:02:03.230Z,3.27
2022-08-23T23:04:33.908Z,3.10
2022-08-23T23:07:02.844Z,3.00
2022-08-23T23:09:31.660Z,3.40
2022-08-23T23:12:00.281Z,2.67
2022-08-23T23:14:28.719Z,2.83
2022-08-23T23:16:57.332Z,2.87
2022-08-23T23:19:43.135Z,3.60
2022-08-23T23:22:15.771Z,3.10
2022-08-23T23:24:44.193Z,3.10
2022-08-23T23:27:12.822Z,3.53
2022-08-23T23:29:42.099Z,3.70
2022-08-23T23:32:10.496Z,4.17
2022-08-23T23:34:38.953Z,3.50
2022-08-23T23:37:07.401Z,3.83
2022-08-23T23:39:37.244Z,3.43
2022-08-23T23:42:05.825Z,4.30
2022-08-23T23:44:34.302Z,3.93
2022-08-23T23:47:03.112Z,4.03
2022-08-23T23:49:33.524Z,3.53
2022-08-23T23:52:03.609Z,4.10
2022-08-23T23:54:33.731Z,2.87
2022-08-23T23:57:04.133Z,3.47
2022-08-23T23:59:32.974Z,3.13
